createdAt,value
2023-02-12T10:06:17.446Z,102121.97
2023-02-12T10:08:40.209Z,102121.97
2023-02-12T10:10:51.949Z,102095.09
2023-02-12T10:13:04.044Z,102083.97
2023-02-12T10:15:13.157Z,102076.88
2023-02-12T10:17:40.165Z,102095.03
2023-02-12T10:20:10.480Z,102116.81
2023-02-12T10:22:55.026Z,102111.09
2023-02-12T10:25:26.999Z,102121.50
2023-02-12T10:27:49.474Z,102129.31
2023-02-12T10:29:53.161Z,102127.41
2023-02-12T10:32:04.772Z,102137.75
2023-02-12T10:34:34.696Z,102154.72
2023-02-12T10:36:44.485Z,102157.25
2023-02-12T10:38:51.914Z,102159.75
2023-02-12T10:41:01.796Z,102166.47
2023-02-12T10:43:04.632Z,102179.84
2023-02-12T10:45:15.380Z,102178.75
2023-02-12T10:47:20.035Z,102191.16
2023-02-12T10:49:22.788Z,102174.03
2023-02-12T10:51:46.471Z,102172.09
2023-02-12T10:53:49.650Z,102183.94
2023-02-12T10:56:25.992Z,102195.25
2023-02-12T10:58:28.625Z,102197.28
2023-02-12T11:00:37.028Z,102199.13
2023-02-12T11:02:40.121Z,102202.72
2023-02-12T11:04:42.725Z,102206.06
2023-02-12T11:07:01.731Z,102198.63
2023-02-12T11:09:05.929Z,102187.22
2023-02-12T11:11:16.139Z,102208.72
2023-02-12T11:13:28.956Z,102225.47
2023-02-12T11:15:52.104Z,102250.19
2023-02-12T11:18:09.132Z,102273.16
2023-02-12T11:20:17.817Z,102292.41
2023-02-12T11:22:20.712Z,102305.50
2023-02-12T11:24:30.022Z,102308.13
2023-02-12T11:26:33.701Z,102303.25
2023-02-12T11:28:37.594Z,102308.63
2023-02-12T11:31:03.918Z,102312.47
2023-02-12T11:33:23.087Z,102313.44
2023-02-12T11:35:28.447Z,102330.69
2023-02-12T11:37:38.054Z,102329.00
2023-02-12T11:39:46.220Z,102321.69
2023-02-12T11:41:55.597Z,102315.56
2023-02-12T11:43:59.354Z,102310.25
2023-02-12T11:46:03.296Z,102305.59
2023-02-12T11:48:20.997Z,102292.13
2023-02-12T11:50:31.250Z,102297.78
2023-02-12T11:52:38.100Z,102290.09
2023-02-12T11:54:46.372Z,102293.16
2023-02-12T11:56:49.654Z,102297.53
2023-02-12T11:58:52.716Z,102300.13
2023-02-12T12:01:14.229Z,102308.34
2023-02-12T12:03:34.793Z,102297.81
2023-02-12T12:05:45.800Z,102296.50
2023-02-12T12:07:57.647Z,102291.41
2023-02-12T12:10:13.616Z,102287.63
2023-02-12T12:12:23.284Z,102291.09
2023-02-12T12:15:00.725Z,102284.66
2023-02-12T12:17:32.604Z,102266.00
2023-02-12T12:19:56.057Z,102262.50
2023-02-12T12:22:14.505Z,102244.97
2023-02-12T12:24:44.344Z,102246.13
2023-02-12T12:27:00.658Z,102241.66
2023-02-12T12:29:03.520Z,102246.47
2023-02-12T12:31:12.525Z,102248.34
2023-02-12T12:33:30.452Z,102249.28
2023-02-12T12:35:46.125Z,102241.13
2023-02-12T12:38:02.380Z,102238.94
2023-02-12T12:40:17.661Z,102240.97
2023-02-12T12:42:40.906Z,102226.41
2023-02-12T12:44:49.781Z,102223.78
2023-02-12T12:47:01.255Z,102224.22
2023-02-12T12:49:32.626Z,102235.31
2023-02-12T12:51:44.720Z,102241.25
2023-02-12T12:54:23.186Z,102244.91
2023-02-12T12:57:04.950Z,102246.09
2023-02-12T12:59:36.889Z,102239.16
2023-02-12T13:02:01.342Z,102242.03
2023-02-12T13:04:28.887Z,102252.38
2023-02-12T13:06:50.766Z,102252.72
2023-02-12T13:09:50.305Z,102249.09
2023-02-12T13:12:14.687Z,102247.41
2023-02-12T13:15:02.595Z,102246.81
2023-02-12T13:17:29.999Z,102239.59
2023-02-12T13:20:07.066Z,102242.16
2023-02-12T13:22:27.293Z,102230.69
2023-02-12T13:24:38.142Z,102213.28
2023-02-12T13:26:59.238Z,102213.69
2023-02-12T13:29:13.593Z,102202.56
2023-02-12T13:31:32.690Z,102196.88
2023-02-12T13:34:01.645Z,102193.50
2023-02-12T13:36:09.798Z,102203.59
2023-02-12T13:38:41.128Z,102203.22
2023-02-12T13:40:44.322Z,102208.72
2023-02-12T13:42:55.576Z,102213.88
2023-02-12T13:45:07.755Z,102222.31
2023-02-12T13:47:45.651Z,102223.25
2023-02-12T13:50:25.775Z,102220.69
2023-02-12T13:52:47.186Z,102227.13
2023-02-12T13:54:58.297Z,102231.97
2023-02-12T13:57:03.941Z,102228.91
2023-02-12T13:59:33.282Z,102234.16
2023-02-12T14:01:38.941Z,102224.19
2023-02-12T14:03:42.806Z,102228.53
2023-02-12T14:05:50.426Z,102220.47
2023-02-12T14:08:05.868Z,102210.44
2023-02-12T14:10:25.088Z,102224.62
2023-02-12T14:12:35.609Z,102227.88
2023-02-12T14:14:50.870Z,102242.28
2023-02-12T14:16:54.662Z,102241.31
2023-02-12T14:19:35.466Z,102252.66
2023-02-12T14:21:41.488Z,102251.09
2023-02-12T14:23:47.341Z,102245.78
2023-02-12T14:25:58.942Z,102243.72
2023-02-12T14:28:39.594Z,102246.53
2023-02-12T14:30:43.381Z,102235.97
2023-02-12T14:32:51.067Z,102241.25
2023-02-12T14:34:54.678Z,102239.97
2023-02-12T14:37:15.263Z,102228.94
2023-02-12T14:39:21.652Z,102223.22
2023-02-12T14:41:43.229Z,102224.94
2023-02-12T14:44:27.345Z,102219.34
2023-02-12T14:46:36.999Z,102207.84
2023-02-12T14:48:51.032Z,102213.22
2023-02-12T14:50:56.338Z,102213.37
2023-02-12T14:53:05.697Z,102214.47
2023-02-12T14:55:22.836Z,102205.00
2023-02-12T14:57:42.666Z,102199.84
2023-02-12T14:59:48.109Z,102202.59
2023-02-12T15:01:52.771Z,102206.00
2023-02-12T15:03:59.652Z,102206.72
2023-02-12T15:09:11.796Z,102210.97
2023-02-12T15:11:42.003Z,102214.59
2023-02-12T15:13:49.843Z,102225.72
2023-02-12T15:16:32.672Z,102223.91
2023-02-12T15:18:36.639Z,102221.16
2023-02-12T15:20:57.235Z,102228.09
2023-02-12T15:23:00.478Z,102235.97
2023-02-12T15:25:30.754Z,102233.47
2023-02-12T15:27:34.271Z,102230.94
2023-02-12T15:29:44.269Z,102238.75
2023-02-12T15:31:53.700Z,102235.25
2023-02-12T15:33:59.702Z,102229.31
2023-02-12T15:36:04.875Z,102225.91
2023-02-12T15:38:09.110Z,102219.06
2023-02-12T15:40:16.670Z,102221.75
2023-02-12T15:42:40.947Z,102225.38
2023-02-12T15:44:46.198Z,102213.50
2023-02-12T15:46:55.913Z,102200.72
2023-02-12T15:49:00.828Z,102195.47
2023-02-12T15:51:31.392Z,102197.31
2023-02-12T15:53:35.203Z,102192.94
2023-02-12T15:55:43.105Z,102193.91
2023-02-12T15:57:57.547Z,102198.41
2023-02-12T16:00:39.676Z,102198.28
2023-02-12T16:02:43.161Z,102213.88
2023-02-12T16:04:48.028Z,102219.31
2023-02-12T16:06:55.920Z,102202.03
2023-02-12T16:09:27.890Z,102205.56
2023-02-12T16:11:33.172Z,102203.91
2023-02-12T16:13:37.948Z,102197.13
2023-02-12T16:15:44.065Z,102192.00
2023-02-12T16:17:51.784Z,102186.84
2023-02-12T16:19:59.553Z,102180.00
2023-02-12T16:22:14.899Z,102177.41
2023-02-12T16:24:33.476Z,102173.94
2023-02-12T16:26:37.549Z,102171.38
2023-02-12T16:28:54.739Z,102176.53
2023-02-12T16:31:16.501Z,102178.34
2023-02-12T16:33:33.789Z,102173.16
2023-02-12T16:35:37.293Z,102171.50
2023-02-12T16:37:40.630Z,102162.09
2023-02-12T16:40:00.606Z,102150.91
2023-02-12T16:42:04.351Z,102143.97
2023-02-12T16:44:26.818Z,102143.91
2023-02-12T16:46:45.864Z,102143.84
2023-02-12T16:48:55.270Z,102153.31
2023-02-12T16:50:59.874Z,102161.12
2023-02-12T16:53:09.736Z,102164.63
2023-02-12T16:55:16.598Z,102162.09
2023-02-12T16:57:23.622Z,102154.34
2023-02-12T16:59:27.715Z,102150.91
2023-02-12T17:01:37.540Z,102148.28
2023-02-12T17:03:42.914Z,102153.47
2023-02-12T17:05:46.527Z,102151.75
2023-02-12T17:07:50.842Z,102152.66
2023-02-12T17:09:54.373Z,102145.69
2023-02-12T17:11:57.602Z,102146.59
2023-02-12T17:14:01.751Z,102141.44
2023-02-12T17:16:06.948Z,102138.84
2023-02-12T17:18:14.768Z,102142.28
2023-02-12T17:20:19.205Z,102137.97
2023-02-12T17:22:26.810Z,102130.22
2023-02-12T17:24:32.464Z,102129.38
2023-02-12T17:26:37.740Z,102117.28
2023-02-12T17:28:42.083Z,102100.00
2023-02-12T17:30:47.383Z,102081.06
2023-02-12T17:32:51.577Z,102081.84
2023-02-12T17:34:55.196Z,102084.41
2023-02-12T17:36:59.730Z,102080.94
2023-02-12T17:39:11.326Z,102085.34
2023-02-12T17:41:15.921Z,102074.09
2023-02-12T17:43:20.529Z,102060.31
2023-02-12T17:45:24.477Z,102046.50
2023-02-12T17:47:28.271Z,102055.06
2023-02-12T17:49:32.889Z,102055.16
2023-02-12T17:51:38.335Z,102044.75
2023-02-12T17:53:44.276Z,102037.00
2023-02-12T17:55:47.567Z,102030.13
2023-02-12T17:57:55.979Z,102024.09
2023-02-12T17:59:59.780Z,102011.12
2023-02-12T18:02:06.919Z,102004.16
2023-02-12T18:04:11.235Z,102019.72
2023-02-12T18:06:17.165Z,102028.31
2023-02-12T18:08:20.746Z,102028.38
2023-02-12T18:10:24.271Z,102019.72
2023-02-12T18:12:28.099Z,102026.63
2023-02-12T18:14:32.738Z,102022.28
2023-02-12T18:16:42.617Z,102032.63
2023-02-12T18:18:46.822Z,102039.59
2023-02-12T18:20:51.104Z,102029.25
2023-02-12T18:22:56.106Z,102024.94
2023-02-12T18:24:59.591Z,102005.12
2023-02-12T18:27:03.378Z,101987.84
2023-02-12T18:29:07.911Z,102004.19
2023-02-12T18:31:11.658Z,102018.03
2023-02-12T18:33:15.883Z,102030.13
2023-02-12T18:35:20.293Z,102027.53
2023-02-12T18:37:25.202Z,102018.94
2023-02-12T18:39:29.776Z,102025.00
2023-02-12T18:41:40.740Z,102001.72
2023-02-12T18:43:44.973Z,101988.78
2023-02-12T18:45:48.885Z,101980.97
2023-02-12T18:47:52.547Z,101988.75
2023-02-12T18:49:58.569Z,101987.03
2023-02-12T18:52:03.055Z,101980.16
2023-02-12T18:54:12.850Z,101975.81
2023-02-12T18:56:18.974Z,101978.38
2023-02-12T18:58:26.112Z,101980.97
2023-02-12T19:00:34.006Z,101978.44
2023-02-12T19:02:38.582Z,101972.41
2023-02-12T19:04:45.430Z,101974.09
2023-02-12T19:06:54.207Z,101947.38
2023-02-12T19:09:00.538Z,101936.22
2023-02-12T19:11:06.630Z,101905.13
2023-02-12T19:13:12.204Z,101900.84
2023-02-12T19:15:16.159Z,101891.28
2023-02-12T19:17:21.335Z,101892.16
2023-02-12T19:19:27.541Z,101876.69
2023-02-12T19:21:32.016Z,101847.34
2023-02-12T19:23:36.619Z,101829.22
2023-02-12T19:25:46.001Z,101824.00
2023-02-12T19:27:49.810Z,101834.34
2023-02-12T19:29:54.639Z,101849.88
2023-02-12T19:32:01.072Z,101860.19
2023-02-12T19:34:18.624Z,101872.25
2023-02-12T19:36:22.924Z,101882.59
2023-02-12T19:38:28.258Z,101888.72
2023-02-12T19:40:32.836Z,101869.69
2023-02-12T19:42:57.696Z,101891.28
2023-02-12T19:45:05.224Z,101885.25
2023-02-12T19:47:10.219Z,101884.37
2023-02-12T19:49:18.386Z,101880.06
2023-02-12T19:51:25.168Z,101893.88
2023-02-12T19:53:29.441Z,101904.25
2023-02-12T19:55:36.487Z,101898.25
2023-02-12T19:57:41.715Z,101895.66
2023-02-12T19:59:47.114Z,101899.09
2023-02-12T20:01:51.407Z,101913.75
2023-02-12T20:03:59.914Z,101916.34
2023-02-12T20:06:07.732Z,101921.56
2023-02-12T20:08:11.514Z,101926.75
2023-02-12T20:10:18.222Z,101920.69
2023-02-12T20:12:21.965Z,101939.69
2023-02-12T20:14:28.144Z,101943.97
2023-02-12T20:16:37.987Z,101981.94
2023-02-12T20:18:47.136Z,102004.41
2023-02-12T20:20:52.509Z,101991.38
2023-02-12T20:22:57.431Z,101968.94
2023-02-12T20:25:02.978Z,101955.09
2023-02-12T20:27:07.089Z,101924.91
2023-02-12T20:29:10.372Z,101916.31
2023-02-12T20:31:23.828Z,101933.59
2023-02-12T20:33:27.685Z,101949.09
2023-02-12T20:35:32.172Z,101949.91
2023-02-12T20:37:35.881Z,101960.28
2023-02-12T20:39:42.342Z,101966.31
2023-02-12T20:41:46.866Z,101999.06
2023-02-12T20:43:51.636Z,102027.50
2023-02-12T20:48:06.744Z,102055.00
2023-02-12T20:50:11.169Z,102061.84
2023-02-12T20:52:14.909Z,102059.28
2023-02-12T20:54:20.356Z,102085.97
2023-02-12T20:56:40.360Z,102085.06
2023-02-12T20:58:45.543Z,102112.56
2023-02-12T21:00:49.616Z,102111.66
2023-02-12T21:02:55.015Z,102114.94
2023-02-12T21:04:58.858Z,102117.56
2023-02-12T21:07:02.921Z,102122.69
2023-02-12T21:09:09.429Z,102120.12
2023-02-12T21:11:20.005Z,102125.34
2023-02-12T21:13:25.921Z,102141.69
2023-02-12T21:15:30.263Z,102145.88
2023-02-12T21:17:34.209Z,102146.75
2023-02-12T21:19:38.851Z,102152.03
2023-02-12T21:21:46.386Z,102170.00
2023-02-12T21:23:53.269Z,102177.81
2023-02-12T21:26:10.046Z,102169.03
2023-02-12T21:28:14.778Z,102165.56
2023-02-12T21:30:18.343Z,102182.06
2023-02-12T21:32:22.139Z,102197.50
2023-02-12T21:34:25.528Z,102201.84
2023-02-12T21:36:31.968Z,102192.13
2023-02-12T21:38:40.081Z,102200.00
2023-02-12T21:40:42.804Z,102202.59
2023-02-12T21:42:45.747Z,102211.09
2023-02-12T21:44:49.706Z,102239.59
2023-02-12T21:46:53.283Z,102241.09
2023-02-12T21:48:56.679Z,102275.66
2023-02-12T21:51:00.747Z,102294.44
2023-02-12T21:53:03.500Z,102301.28
2023-02-12T21:55:06.355Z,102301.22
2023-02-12T21:57:09.624Z,102311.50
2023-02-12T21:59:13.360Z,102305.59
2023-02-12T22:01:19.052Z,102320.94
2023-02-12T22:03:22.603Z,102343.50
2023-02-12T22:05:25.125Z,102368.38
2023-02-12T22:07:27.721Z,102390.47
2023-02-12T22:09:30.462Z,102378.31
2023-02-12T22:11:32.808Z,102393.00
2023-02-12T22:13:36.287Z,102390.56
2023-02-12T22:15:38.978Z,102392.03
2023-02-12T22:17:41.341Z,102389.47
2023-02-12T22:19:43.788Z,102384.09
2023-02-12T22:21:49.088Z,102384.91
2023-02-12T22:23:52.518Z,102387.53
2023-02-12T22:25:54.951Z,102386.56
2023-02-12T22:27:57.572Z,102374.66
2023-02-12T22:30:00.840Z,102394.28
2023-02-12T22:32:03.287Z,102389.87
2023-02-12T22:34:09.929Z,102387.41
2023-02-12T22:36:12.528Z,102377.94
2023-02-12T22:38:14.860Z,102392.69
2023-02-12T22:40:17.473Z,102392.66
2023-02-12T22:42:19.740Z,102385.81
2023-02-12T22:44:22.300Z,102401.19
2023-02-12T22:46:25.123Z,102405.31
2023-02-12T22:48:28.747Z,102413.06
2023-02-12T22:50:31.027Z,102420.06
2023-02-12T22:52:33.701Z,102409.81
2023-02-12T22:54:36.016Z,102419.19
2023-02-12T22:56:38.323Z,102421.84
2023-02-12T22:58:41.169Z,102423.50
2023-02-12T23:00:43.653Z,102420.44
2023-02-12T23:02:45.933Z,102419.03
2023-02-12T23:04:48.579Z,102426.78
